sensor_id;sensor_type;location;lat;lon;timestamp;P1;durP1;ratioP1;P2;durP2;ratioP2
8791;SDS011;4432;50.890;4.744;2023-02-28T00:01:16;3.97;;;3.27;;
8791;SDS011;4432;50.890;4.744;2023-02-28T00:03:42;11.50;;;3.30;;
8791;SDS011;4432;50.890;4.744;2023-02-28T00:06:07;4.83;;;3.37;;
8791;SDS011;4432;50.890;4.744;2023-02-28T00:08:34;8.23;;;3.70;;
8791;SDS011;4432;50.890;4.744;2023-02-28T00:11:05;10.63;;;3.60;;
8791;SDS011;4432;50.890;4.744;2023-02-28T00:13:33;6.00;;;4.50;;
8791;SDS011;4432;50.890;4.744;2023-02-28T00:16:04;7.10;;;3.57;;
8791;SDS011;4432;50.890;4.744;2023-02-28T00:18:32;5.03;;;3.17;;
8791;SDS011;4432;50.890;4.744;2023-02-28T00:20:58;4.73;;;3.13;;
8791;SDS011;4432;50.890;4.744;2023-02-28T00:23:24;6.90;;;3.67;;
8791;SDS011;4432;50.890;4.744;2023-02-28T00:25:50;4.97;;;3.07;;
8791;SDS011;4432;50.890;4.744;2023-02-28T00:28:17;6.60;;;3.60;;
8791;SDS011;4432;50.890;4.744;2023-02-28T00:30:43;5.07;;;3.00;;
8791;SDS011;4432;50.890;4.744;2023-02-28T00:33:09;8.63;;;3.60;;
8791;SDS011;4432;50.890;4.744;2023-02-28T00:35:35;5.63;;;3.40;;
8791;SDS011;4432;50.890;4.744;2023-02-28T00:38:01;7.10;;;3.63;;
8791;SDS011;4432;50.890;4.744;2023-02-28T00:40:27;6.00;;;3.50;;
8791;SDS011;4432;50.890;4.744;2023-02-28T00:42:53;3.83;;;3.20;;
8791;SDS011;4432;50.890;4.744;2023-02-28T00:45:19;5.30;;;3.00;;
8791;SDS011;4432;50.890;4.744;2023-02-28T00:47:45;10.83;;;3.77;;
8791;SDS011;4432;50.890;4.744;2023-02-28T00:50:14;2.97;;;2.63;;
8791;SDS011;4432;50.890;4.744;2023-02-28T00:52:44;3.00;;;2.80;;
8791;SDS011;4432;50.890;4.744;2023-02-28T00:55:10;4.57;;;3.27;;
8791;SDS011;4432;50.890;4.744;2023-02-28T00:57:35;9.37;;;4.23;;
8791;SDS011;4432;50.890;4.744;2023-02-28T01:00:02;3.23;;;2.90;;
8791;SDS011;4432;50.890;4.744;2023-02-28T01:02:28;6.63;;;2.90;;
8791;SDS011;4432;50.890;4.744;2023-02-28T01:04:54;3.33;;;2.67;;
8791;SDS011;4432;50.890;4.744;2023-02-28T01:07:21;7.50;;;3.40;;
8791;SDS011;4432;50.890;4.744;2023-02-28T01:09:47;6.67;;;2.73;;
8791;SDS011;4432;50.890;4.744;2023-02-28T01:12:13;3.43;;;3.13;;
8791;SDS011;4432;50.890;4.744;2023-02-28T01:14:39;5.40;;;3.70;;
8791;SDS011;4432;50.890;4.744;2023-02-28T01:17:05;4.80;;;3.00;;
8791;SDS011;4432;50.890;4.744;2023-02-28T01:19:31;4.47;;;2.67;;
8791;SDS011;4432;50.890;4.744;2023-02-28T01:22:00;8.17;;;3.53;;
8791;SDS011;4432;50.890;4.744;2023-02-28T01:24:30;2.97;;;2.53;;
8791;SDS011;4432;50.890;4.744;2023-02-28T01:26:55;4.03;;;3.13;;
8791;SDS011;4432;50.890;4.744;2023-02-28T01:29:21;3.57;;;3.10;;
8791;SDS011;4432;50.890;4.744;2023-02-28T01:31:47;8.80;;;2.50;;
8791;SDS011;4432;50.890;4.744;2023-02-28T01:34:13;3.90;;;2.83;;
8791;SDS011;4432;50.890;4.744;2023-02-28T01:36:38;13.47;;;3.57;;
8791;SDS011;4432;50.890;4.744;2023-02-28T01:39:04;5.03;;;3.00;;
8791;SDS011;4432;50.890;4.744;2023-02-28T01:41:31;3.70;;;2.87;;
8791;SDS011;4432;50.890;4.744;2023-02-28T01:44:55;3.37;;;2.07;;
8791;SDS011;4432;50.890;4.744;2023-02-28T01:47:08;4.10;;;2.63;;
8791;SDS011;4432;50.890;4.744;2023-02-28T01:49:34;11.00;;;3.83;;
8791;SDS011;4432;50.890;4.744;2023-02-28T01:52:00;3.40;;;2.60;;
8791;SDS011;4432;50.890;4.744;2023-02-28T01:54:26;2.87;;;2.60;;
8791;SDS011;4432;50.890;4.744;2023-02-28T01:57:14;5.63;;;3.23;;
8791;SDS011;4432;50.890;4.744;2023-02-28T01:59:48;4.07;;;3.00;;
8791;SDS011;4432;50.890;4.744;2023-02-28T02:02:20;3.80;;;2.87;;
8791;SDS011;4432;50.890;4.744;2023-02-28T02:05:09;7.63;;;3.00;;
8791;SDS011;4432;50.890;4.744;2023-02-28T02:07:45;7.57;;;3.00;;
8791;SDS011;4432;50.890;4.744;2023-02-28T02:10:15;5.50;;;4.00;;
8791;SDS011;4432;50.890;4.744;2023-02-28T02:15:30;6.07;;;3.10;;
8791;SDS011;4432;50.890;4.744;2023-02-28T02:17:57;7.40;;;3.10;;
8791;SDS011;4432;50.890;4.744;2023-02-28T02:25:53;5.10;;;2.90;;
8791;SDS011;4432;50.890;4.744;2023-02-28T02:38:52;4.00;;;2.50;;
8791;SDS011;4432;50.890;4.744;2023-02-28T02:46:47;5.63;;;3.70;;
8791;SDS011;4432;50.890;4.744;2023-02-28T02:49:24;5.03;;;3.20;;
8791;SDS011;4432;50.890;4.744;2023-02-28T02:51:55;9.30;;;3.67;;
8791;SDS011;4432;50.890;4.744;2023-02-28T02:54:27;5.67;;;3.30;;
8791;SDS011;4432;50.890;4.744;2023-02-28T02:57:00;7.90;;;3.27;;
8791;SDS011;4432;50.890;4.744;2023-02-28T02:59:30;4.73;;;3.57;;
8791;SDS011;4432;50.890;4.744;2023-02-28T03:02:00;3.53;;;2.97;;
8791;SDS011;4432;50.890;4.744;2023-02-28T03:04:32;4.07;;;3.67;;
8791;SDS011;4432;50.890;4.744;2023-02-28T03:07:03;4.00;;;3.50;;
8791;SDS011;4432;50.890;4.744;2023-02-28T03:09:29;4.33;;;3.03;;
8791;SDS011;4432;50.890;4.744;2023-02-28T03:12:00;3.67;;;3.00;;
8791;SDS011;4432;50.890;4.744;2023-02-28T03:14:33;4.23;;;3.13;;
8791;SDS011;4432;50.890;4.744;2023-02-28T03:33:16;3.33;;;2.93;;
8791;SDS011;4432;50.890;4.744;2023-02-28T03:35:50;7.67;;;3.70;;
8791;SDS011;4432;50.890;4.744;2023-02-28T03:41:05;3.67;;;3.20;;
8791;SDS011;4432;50.890;4.744;2023-02-28T03:43:38;5.70;;;3.77;;
8791;SDS011;4432;50.890;4.744;2023-02-28T03:46:09;5.43;;;3.57;;
8791;SDS011;4432;50.890;4.744;2023-02-28T03:48:43;4.00;;;2.97;;
8791;SDS011;4432;50.890;4.744;2023-02-28T03:51:14;4.73;;;3.80;;
8791;SDS011;4432;50.890;4.744;2023-02-28T03:53:50;4.07;;;3.20;;
8791;SDS011;4432;50.890;4.744;2023-02-28T03:56:19;6.20;;;3.90;;
8791;SDS011;4432;50.890;4.744;2023-02-28T04:01:47;4.57;;;3.73;;
8791;SDS011;4432;50.890;4.744;2023-02-28T04:04:13;5.33;;;3.13;;
8791;SDS011;4432;50.890;4.744;2023-02-28T04:06:41;3.27;;;2.97;;
8791;SDS011;4432;50.890;4.744;2023-02-28T04:09:08;5.87;;;3.93;;
8791;SDS011;4432;50.890;4.744;2023-02-28T04:11:56;5.87;;;2.97;;
8791;SDS011;4432;50.890;4.744;2023-02-28T04:14:21;3.77;;;3.17;;
8791;SDS011;4432;50.890;4.744;2023-02-28T04:16:47;5.47;;;3.47;;
8791;SDS011;4432;50.890;4.744;2023-02-28T04:19:14;8.10;;;4.17;;
8791;SDS011;4432;50.890;4.744;2023-02-28T04:21:40;4.63;;;4.03;;
8791;SDS011;4432;50.890;4.744;2023-02-28T04:24:09;6.23;;;3.47;;
8791;SDS011;4432;50.890;4.744;2023-02-28T04:26:39;5.23;;;3.90;;
8791;SDS011;4432;50.890;4.744;2023-02-28T04:29:09;5.93;;;4.10;;
8791;SDS011;4432;50.890;4.744;2023-02-28T04:31:36;6.03;;;3.50;;
8791;SDS011;4432;50.890;4.744;2023-02-28T04:34:03;4.77;;;3.90;;
8791;SDS011;4432;50.890;4.744;2023-02-28T04:36:28;6.33;;;3.60;;
8791;SDS011;4432;50.890;4.744;2023-02-28T04:38:54;9.90;;;4.87;;
8791;SDS011;4432;50.890;4.744;2023-02-28T04:41:20;5.57;;;4.00;;
8791;SDS011;4432;50.890;4.744;2023-02-28T04:43:47;6.30;;;4.57;;
8791;SDS011;4432;50.890;4.744;2023-02-28T04:46:13;4.90;;;3.40;;
8791;SDS011;4432;50.890;4.744;2023-02-28T04:48:40;8.73;;;4.37;;
8791;SDS011;4432;50.890;4.744;2023-02-28T04:51:11;5.03;;;3.80;;
8791;SDS011;4432;50.890;4.744;2023-02-28T04:53:38;6.67;;;4.57;;
8791;SDS011;4432;50.890;4.744;2023-02-28T04:56:05;4.80;;;4.03;;
8791;SDS011;4432;50.890;4.744;2023-02-28T04:58:32;8.30;;;4.53;;
8791;SDS011;4432;50.890;4.744;2023-02-28T05:01:02;8.10;;;4.73;;
8791;SDS011;4432;50.890;4.744;2023-02-28T05:03:40;6.83;;;4.13;;
8791;SDS011;4432;50.890;4.744;2023-02-28T05:06:07;14.20;;;5.07;;
8791;SDS011;4432;50.890;4.744;2023-02-28T05:08:33;6.87;;;4.63;;
8791;SDS011;4432;50.890;4.744;2023-02-28T05:11:00;5.07;;;3.93;;
8791;SDS011;4432;50.890;4.744;2023-02-28T05:13:26;5.47;;;3.97;;
8791;SDS011;4432;50.890;4.744;2023-02-28T05:15:52;11.80;;;4.50;;
8791;SDS011;4432;50.890;4.744;2023-02-28T05:18:19;6.07;;;4.60;;
8791;SDS011;4432;50.890;4.744;2023-02-28T05:20:44;9.33;;;4.43;;
8791;SDS011;4432;50.890;4.744;2023-02-28T05:23:13;12.00;;;5.23;;
8791;SDS011;4432;50.890;4.744;2023-02-28T05:25:40;6.03;;;4.43;;
8791;SDS011;4432;50.890;4.744;2023-02-28T05:28:07;4.37;;;3.53;;
8791;SDS011;4432;50.890;4.744;2023-02-28T05:30:33;7.40;;;5.07;;
8791;SDS011;4432;50.890;4.744;2023-02-28T05:32:59;9.17;;;5.43;;
8791;SDS011;4432;50.890;4.744;2023-02-28T05:35:25;7.47;;;5.93;;
8791;SDS011;4432;50.890;4.744;2023-02-28T05:37:51;5.13;;;4.43;;
8791;SDS011;4432;50.890;4.744;2023-02-28T05:40:17;14.20;;;5.93;;
8791;SDS011;4432;50.890;4.744;2023-02-28T05:42:45;5.13;;;4.10;;
8791;SDS011;4432;50.890;4.744;2023-02-28T05:45:11;5.53;;;4.60;;
8791;SDS011;4432;50.890;4.744;2023-02-28T05:47:37;6.87;;;5.40;;
8791;SDS011;4432;50.890;4.744;2023-02-28T05:50:03;6.33;;;4.57;;
8791;SDS011;4432;50.890;4.744;2023-02-28T05:52:30;5.97;;;4.57;;
8791;SDS011;4432;50.890;4.744;2023-02-28T05:54:56;7.07;;;4.17;;
8791;SDS011;4432;50.890;4.744;2023-02-28T05:57:22;7.13;;;5.07;;
8791;SDS011;4432;50.890;4.744;2023-02-28T05:59:48;6.77;;;4.90;;
8791;SDS011;4432;50.890;4.744;2023-02-28T06:02:16;10.33;;;5.77;;
8791;SDS011;4432;50.890;4.744;2023-02-28T06:04:42;8.53;;;4.93;;
8791;SDS011;4432;50.890;4.744;2023-02-28T06:07:09;5.67;;;4.73;;
8791;SDS011;4432;50.890;4.744;2023-02-28T06:09:36;9.77;;;5.03;;
8791;SDS011;4432;50.890;4.744;2023-02-28T06:12:02;6.50;;;5.10;;
8791;SDS011;4432;50.890;4.744;2023-02-28T06:14:31;6.47;;;5.00;;
8791;SDS011;4432;50.890;4.744;2023-02-28T06:16:58;5.43;;;4.57;;
8791;SDS011;4432;50.890;4.744;2023-02-28T06:19:25;10.00;;;5.33;;
8791;SDS011;4432;50.890;4.744;2023-02-28T06:21:52;10.10;;;5.77;;
8791;SDS011;4432;50.890;4.744;2023-02-28T06:24:19;10.97;;;4.97;;
8791;SDS011;4432;50.890;4.744;2023-02-28T06:26:45;6.63;;;5.37;;
8791;SDS011;4432;50.890;4.744;2023-02-28T06:29:11;11.10;;;5.77;;
8791;SDS011;4432;50.890;4.744;2023-02-28T06:31:37;7.20;;;3.87;;
8791;SDS011;4432;50.890;4.744;2023-02-28T06:34:04;5.10;;;4.57;;
8791;SDS011;4432;50.890;4.744;2023-02-28T06:36:30;7.23;;;5.33;;
8791;SDS011;4432;50.890;4.744;2023-02-28T06:38:56;7.40;;;5.13;;
8791;SDS011;4432;50.890;4.744;2023-02-28T06:41:25;13.33;;;5.17;;
8791;SDS011;4432;50.890;4.744;2023-02-28T06:43:51;7.13;;;4.57;;
8791;SDS011;4432;50.890;4.744;2023-02-28T06:46:18;6.90;;;4.33;;
8791;SDS011;4432;50.890;4.744;2023-02-28T06:48:44;7.00;;;4.47;;
8791;SDS011;4432;50.890;4.744;2023-02-28T06:51:17;7.70;;;5.17;;
8791;SDS011;4432;50.890;4.744;2023-02-28T06:53:49;7.70;;;4.60;;
8791;SDS011;4432;50.890;4.744;2023-02-28T06:56:15;9.17;;;5.07;;
8791;SDS011;4432;50.890;4.744;2023-02-28T06:58:45;6.27;;;4.90;;
8791;SDS011;4432;50.890;4.744;2023-02-28T07:01:13;7.47;;;5.07;;
8791;SDS011;4432;50.890;4.744;2023-02-28T07:03:39;12.03;;;4.90;;
8791;SDS011;4432;50.890;4.744;2023-02-28T07:06:05;5.20;;;4.17;;
8791;SDS011;4432;50.890;4.744;2023-02-28T07:08:32;7.80;;;4.90;;
8791;SDS011;4432;50.890;4.744;2023-02-28T07:10:58;8.53;;;5.07;;
8791;SDS011;4432;50.890;4.744;2023-02-28T07:13:24;7.33;;;5.07;;
8791;SDS011;4432;50.890;4.744;2023-02-28T07:15:56;6.90;;;4.50;;
8791;SDS011;4432;50.890;4.744;2023-02-28T07:18:24;11.60;;;5.97;;
8791;SDS011;4432;50.890;4.744;2023-02-28T07:20:50;8.70;;;5.70;;
8791;SDS011;4432;50.890;4.744;2023-02-28T07:23:16;7.77;;;5.47;;
8791;SDS011;4432;50.890;4.744;2023-02-28T07:25:42;8.17;;;5.63;;
8791;SDS011;4432;50.890;4.744;2023-02-28T07:28:09;6.50;;;5.33;;
8791;SDS011;4432;50.890;4.744;2023-02-28T07:30:35;11.77;;;6.03;;
8791;SDS011;4432;50.890;4.744;2023-02-28T07:33:00;9.77;;;5.83;;
8791;SDS011;4432;50.890;4.744;2023-02-28T07:35:26;6.83;;;5.20;;
8791;SDS011;4432;50.890;4.744;2023-02-28T07:37:52;9.60;;;5.47;;
8791;SDS011;4432;50.890;4.744;2023-02-28T07:40:17;7.43;;;4.90;;
8791;SDS011;4432;50.890;4.744;2023-02-28T07:42:43;6.10;;;4.30;;
8791;SDS011;4432;50.890;4.744;2023-02-28T07:45:10;6.80;;;3.70;;
8791;SDS011;4432;50.890;4.744;2023-02-28T07:47:40;6.10;;;4.37;;
8791;SDS011;4432;50.890;4.744;2023-02-28T07:50:07;5.70;;;3.60;;
8791;SDS011;4432;50.890;4.744;2023-02-28T07:52:38;5.20;;;3.50;;
8791;SDS011;4432;50.890;4.744;2023-02-28T07:55:05;5.07;;;3.37;;
8791;SDS011;4432;50.890;4.744;2023-02-28T07:57:32;3.73;;;3.23;;
8791;SDS011;4432;50.890;4.744;2023-02-28T07:59:58;6.73;;;4.00;;
8791;SDS011;4432;50.890;4.744;2023-02-28T08:02:23;6.50;;;2.80;;
8791;SDS011;4432;50.890;4.744;2023-02-28T08:04:49;4.57;;;3.77;;
8791;SDS011;4432;50.890;4.744;2023-02-28T08:07:15;6.00;;;3.90;;
8791;SDS011;4432;50.890;4.744;2023-02-28T08:09:42;8.07;;;3.77;;
8791;SDS011;4432;50.890;4.744;2023-02-28T08:12:09;7.00;;;3.50;;
8791;SDS011;4432;50.890;4.744;2023-02-28T08:14:35;5.57;;;3.63;;
8791;SDS011;4432;50.890;4.744;2023-02-28T08:17:02;5.07;;;3.17;;
8791;SDS011;4432;50.890;4.744;2023-02-28T08:19:28;4.73;;;2.90;;
8791;SDS011;4432;50.890;4.744;2023-02-28T08:21:54;4.57;;;3.30;;
8791;SDS011;4432;50.890;4.744;2023-02-28T08:24:21;4.10;;;3.03;;
8791;SDS011;4432;50.890;4.744;2023-02-28T08:26:46;5.83;;;3.20;;
8791;SDS011;4432;50.890;4.744;2023-02-28T08:29:12;4.87;;;3.03;;
8791;SDS011;4432;50.890;4.744;2023-02-28T08:31:38;3.27;;;2.80;;
8791;SDS011;4432;50.890;4.744;2023-02-28T08:34:05;2.47;;;2.17;;
8791;SDS011;4432;50.890;4.744;2023-02-28T08:36:35;3.03;;;2.73;;
8791;SDS011;4432;50.890;4.744;2023-02-28T08:39:02;4.67;;;2.40;;
8791;SDS011;4432;50.890;4.744;2023-02-28T08:41:28;3.83;;;2.93;;
8791;SDS011;4432;50.890;4.744;2023-02-28T08:43:54;4.67;;;3.00;;
8791;SDS011;4432;50.890;4.744;2023-02-28T08:46:20;3.90;;;2.67;;
8791;SDS011;4432;50.890;4.744;2023-02-28T08:48:46;4.20;;;2.57;;
8791;SDS011;4432;50.890;4.744;2023-02-28T08:51:16;3.97;;;2.47;;
8791;SDS011;4432;50.890;4.744;2023-02-28T08:53:46;4.50;;;3.03;;
8791;SDS011;4432;50.890;4.744;2023-02-28T08:56:14;3.13;;;2.50;;
8791;SDS011;4432;50.890;4.744;2023-02-28T08:58:43;3.90;;;2.93;;
8791;SDS011;4432;50.890;4.744;2023-02-28T09:01:10;3.50;;;2.40;;
8791;SDS011;4432;50.890;4.744;2023-02-28T09:03:55;2.37;;;2.17;;
8791;SDS011;4432;50.890;4.744;2023-02-28T09:06:22;2.30;;;2.20;;
8791;SDS011;4432;50.890;4.744;2023-02-28T09:08:51;5.60;;;2.13;;
8791;SDS011;4432;50.890;4.744;2023-02-28T09:11:17;4.87;;;2.57;;
8791;SDS011;4432;50.890;4.744;2023-02-28T09:13:44;2.70;;;2.33;;
8791;SDS011;4432;50.890;4.744;2023-02-28T09:16:12;2.50;;;2.00;;
8791;SDS011;4432;50.890;4.744;2023-02-28T09:18:39;2.70;;;1.93;;
8791;SDS011;4432;50.890;4.744;2023-02-28T09:21:06;5.43;;;2.20;;
8791;SDS011;4432;50.890;4.744;2023-02-28T09:23:33;3.00;;;2.10;;
8791;SDS011;4432;50.890;4.744;2023-02-28T09:25:59;3.73;;;1.70;;
8791;SDS011;4432;50.890;4.744;2023-02-28T09:28:25;2.33;;;1.93;;
8791;SDS011;4432;50.890;4.744;2023-02-28T09:30:52;2.50;;;2.00;;
8791;SDS011;4432;50.890;4.744;2023-02-28T09:33:19;4.47;;;2.27;;
8791;SDS011;4432;50.890;4.744;2023-02-28T09:35:46;2.13;;;1.93;;
8791;SDS011;4432;50.890;4.744;2023-02-28T09:38:13;1.93;;;1.77;;
8791;SDS011;4432;50.890;4.744;2023-02-28T09:40:47;2.77;;;2.20;;
8791;SDS011;4432;50.890;4.744;2023-02-28T09:43:15;2.23;;;1.90;;
8791;SDS011;4432;50.890;4.744;2023-02-28T09:45:47;2.93;;;1.73;;
8791;SDS011;4432;50.890;4.744;2023-02-28T09:48:25;6.83;;;1.90;;
8791;SDS011;4432;50.890;4.744;2023-02-28T09:51:11;2.67;;;1.77;;
8791;SDS011;4432;50.890;4.744;2023-02-28T09:53:39;1.93;;;1.83;;
8791;SDS011;4432;50.890;4.744;2023-02-28T09:56:09;1.83;;;1.60;;
8791;SDS011;4432;50.890;4.744;2023-02-28T10:03:43;2.87;;;1.77;;
8791;SDS011;4432;50.890;4.744;2023-02-28T10:06:20;1.83;;;1.67;;
8791;SDS011;4432;50.890;4.744;2023-02-28T10:08:56;1.57;;;1.47;;
8791;SDS011;4432;50.890;4.744;2023-02-28T10:11:26;2.40;;;1.90;;
8791;SDS011;4432;50.890;4.744;2023-02-28T10:13:57;1.53;;;1.40;;
8791;SDS011;4432;50.890;4.744;2023-02-28T10:16:31;1.83;;;1.73;;
8791;SDS011;4432;50.890;4.744;2023-02-28T10:19:03;1.50;;;1.40;;
8791;SDS011;4432;50.890;4.744;2023-02-28T10:21:36;1.70;;;1.60;;
8791;SDS011;4432;50.890;4.744;2023-02-28T10:26:58;6.07;;;1.30;;
8791;SDS011;4432;50.890;4.744;2023-02-28T10:29:27;1.53;;;1.30;;
8791;SDS011;4432;50.890;4.744;2023-02-28T10:31:56;1.63;;;1.30;;
8791;SDS011;4432;50.890;4.744;2023-02-28T10:34:23;1.80;;;1.67;;
8791;SDS011;4432;50.890;4.744;2023-02-28T10:36:49;2.87;;;1.50;;
8791;SDS011;4432;50.890;4.744;2023-02-28T10:39:35;1.57;;;1.47;;
8791;SDS011;4432;50.890;4.744;2023-02-28T10:42:18;1.43;;;1.30;;
8791;SDS011;4432;50.890;4.744;2023-02-28T10:47:40;1.50;;;1.40;;
8791;SDS011;4432;50.890;4.744;2023-02-28T11:01:34;1.83;;;1.63;;
8791;SDS011;4432;50.890;4.744;2023-02-28T11:04:02;2.63;;;2.00;;
8791;SDS011;4432;50.890;4.744;2023-02-28T11:06:32;3.57;;;1.60;;
8791;SDS011;4432;50.890;4.744;2023-02-28T11:09:06;1.70;;;1.40;;
8791;SDS011;4432;50.890;4.744;2023-02-28T11:11:49;13.47;;;2.10;;
8791;SDS011;4432;50.890;4.744;2023-02-28T11:14:21;1.40;;;1.30;;
8791;SDS011;4432;50.890;4.744;2023-02-28T11:16:50;1.43;;;1.33;;
8791;SDS011;4432;50.890;4.744;2023-02-28T11:19:18;1.20;;;1.10;;
8791;SDS011;4432;50.890;4.744;2023-02-28T11:21:53;1.97;;;1.40;;
8791;SDS011;4432;50.890;4.744;2023-02-28T11:24:42;2.17;;;1.57;;
8791;SDS011;4432;50.890;4.744;2023-02-28T11:29:55;1.50;;;1.40;;
8791;SDS011;4432;50.890;4.744;2023-02-28T11:32:22;4.27;;;1.53;;
8791;SDS011;4432;50.890;4.744;2023-02-28T11:35:01;1.67;;;1.20;;
8791;SDS011;4432;50.890;4.744;2023-02-28T11:37:47;2.03;;;1.20;;
8791;SDS011;4432;50.890;4.744;2023-02-28T11:40:17;1.27;;;1.13;;
8791;SDS011;4432;50.890;4.744;2023-02-28T11:48:14;2.00;;;1.50;;
8791;SDS011;4432;50.890;4.744;2023-02-28T11:53:26;1.47;;;1.37;;
8791;SDS011;4432;50.890;4.744;2023-02-28T11:56:23;1.23;;;1.13;;
8791;SDS011;4432;50.890;4.744;2023-02-28T12:02:15;1.97;;;1.70;;
8791;SDS011;4432;50.890;4.744;2023-02-28T12:07:55;1.07;;;1.03;;
8791;SDS011;4432;50.890;4.744;2023-02-28T12:10:53;1.23;;;1.03;;
8791;SDS011;4432;50.890;4.744;2023-02-28T12:13:26;1.37;;;1.27;;
8791;SDS011;4432;50.890;4.744;2023-02-28T12:18:47;1.03;;;1.03;;
8791;SDS011;4432;50.890;4.744;2023-02-28T12:27:16;1.70;;;1.53;;
8791;SDS011;4432;50.890;4.744;2023-02-28T12:29:49;2.07;;;1.70;;
8791;SDS011;4432;50.890;4.744;2023-02-28T12:32:45;1.40;;;1.37;;
8791;SDS011;4432;50.890;4.744;2023-02-28T12:35:34;1.60;;;1.50;;
8791;SDS011;4432;50.890;4.744;2023-02-28T12:38:27;1.93;;;1.60;;
8791;SDS011;4432;50.890;4.744;2023-02-28T12:43:27;1.37;;;1.27;;
8791;SDS011;4432;50.890;4.744;2023-02-28T12:46:08;1.40;;;1.30;;
8791;SDS011;4432;50.890;4.744;2023-02-28T12:51:07;1.60;;;1.50;;
8791;SDS011;4432;50.890;4.744;2023-02-28T12:58:57;1.60;;;1.50;;
8791;SDS011;4432;50.890;4.744;2023-02-28T13:01:56;2.10;;;1.57;;
8791;SDS011;4432;50.890;4.744;2023-02-28T13:04:46;4.13;;;1.63;;
8791;SDS011;4432;50.890;4.744;2023-02-28T13:10:12;4.50;;;1.40;;
8791;SDS011;4432;50.890;4.744;2023-02-28T13:12:47;2.03;;;1.57;;
8791;SDS011;4432;50.890;4.744;2023-02-28T13:17:50;1.70;;;1.60;;
8791;SDS011;4432;50.890;4.744;2023-02-28T13:20:24;1.17;;;1.10;;
8791;SDS011;4432;50.890;4.744;2023-02-28T13:22:53;1.40;;;1.30;;
8791;SDS011;4432;50.890;4.744;2023-02-28T13:27:58;4.10;;;1.63;;
8791;SDS011;4432;50.890;4.744;2023-02-28T13:33:25;1.43;;;1.33;;
8791;SDS011;4432;50.890;4.744;2023-02-28T13:36:36;2.17;;;1.27;;
8791;SDS011;4432;50.890;4.744;2023-02-28T13:38:43;4.33;;;1.70;;
8791;SDS011;4432;50.890;4.744;2023-02-28T13:44:10;1.67;;;1.57;;
8791;SDS011;4432;50.890;4.744;2023-02-28T14:00:31;1.50;;;1.40;;
8791;SDS011;4432;50.890;4.744;2023-02-28T14:06:28;5.70;;;2.17;;
8791;SDS011;4432;50.890;4.744;2023-02-28T14:08:58;2.63;;;1.93;;
8791;SDS011;4432;50.890;4.744;2023-02-28T14:13:54;4.17;;;2.03;;
8791;SDS011;4432;50.890;4.744;2023-02-28T14:16:20;2.30;;;1.87;;
8791;SDS011;4432;50.890;4.744;2023-02-28T14:18:56;3.37;;;2.07;;
8791;SDS011;4432;50.890;4.744;2023-02-28T14:21:34;3.27;;;1.70;;
8791;SDS011;4432;50.890;4.744;2023-02-28T14:32:33;2.00;;;1.57;;
8791;SDS011;4432;50.890;4.744;2023-02-28T14:35:17;1.47;;;1.37;;
8791;SDS011;4432;50.890;4.744;2023-02-28T14:37:51;1.80;;;1.70;;
8791;SDS011;4432;50.890;4.744;2023-02-28T14:40:27;2.10;;;1.90;;
8791;SDS011;4432;50.890;4.744;2023-02-28T14:42:57;2.20;;;1.70;;
8791;SDS011;4432;50.890;4.744;2023-02-28T14:45:28;2.93;;;2.30;;
8791;SDS011;4432;50.890;4.744;2023-02-28T14:47:56;1.77;;;1.67;;
8791;SDS011;4432;50.890;4.744;2023-02-28T14:50:33;2.13;;;1.93;;
8791;SDS011;4432;50.890;4.744;2023-02-28T14:53:01;1.87;;;1.77;;
8791;SDS011;4432;50.890;4.744;2023-02-28T14:55:34;1.90;;;1.70;;
8791;SDS011;4432;50.890;4.744;2023-02-28T14:58:05;2.03;;;1.83;;
8791;SDS011;4432;50.890;4.744;2023-02-28T15:00:33;1.63;;;1.53;;
8791;SDS011;4432;50.890;4.744;2023-02-28T15:03:17;2.37;;;1.90;;
8791;SDS011;4432;50.890;4.744;2023-02-28T15:05:55;3.17;;;1.90;;
8791;SDS011;4432;50.890;4.744;2023-02-28T15:08:23;2.13;;;1.90;;
8791;SDS011;4432;50.890;4.744;2023-02-28T15:13:22;2.20;;;2.00;;
8791;SDS011;4432;50.890;4.744;2023-02-28T15:15:55;2.20;;;1.90;;
8791;SDS011;4432;50.890;4.744;2023-02-28T15:18:26;2.43;;;1.57;;
8791;SDS011;4432;50.890;4.744;2023-02-28T15:20:53;2.20;;;1.80;;
8791;SDS011;4432;50.890;4.744;2023-02-28T15:23:20;1.80;;;1.70;;
8791;SDS011;4432;50.890;4.744;2023-02-28T15:25:47;2.00;;;1.60;;
8791;SDS011;4432;50.890;4.744;2023-02-28T15:28:15;2.40;;;1.50;;
8791;SDS011;4432;50.890;4.744;2023-02-28T15:31:01;1.20;;;1.10;;
8791;SDS011;4432;50.890;4.744;2023-02-28T15:33:29;1.87;;;1.67;;
8791;SDS011;4432;50.890;4.744;2023-02-28T15:36:05;1.60;;;1.50;;
8791;SDS011;4432;50.890;4.744;2023-02-28T15:38:34;1.70;;;1.60;;
8791;SDS011;4432;50.890;4.744;2023-02-28T15:41:00;1.70;;;1.57;;
8791;SDS011;4432;50.890;4.744;2023-02-28T15:43:27;2.77;;;1.40;;
8791;SDS011;4432;50.890;4.744;2023-02-28T15:48:42;3.83;;;1.90;;
8791;SDS011;4432;50.890;4.744;2023-02-28T15:51:12;1.83;;;1.73;;
8791;SDS011;4432;50.890;4.744;2023-02-28T15:53:51;1.90;;;1.80;;
8791;SDS011;4432;50.890;4.744;2023-02-28T15:56:33;5.70;;;2.30;;
8791;SDS011;4432;50.890;4.744;2023-02-28T15:59:07;2.13;;;1.80;;
8791;SDS011;4432;50.890;4.744;2023-02-28T16:05:01;5.40;;;1.73;;
8791;SDS011;4432;50.890;4.744;2023-02-28T16:07:37;1.83;;;1.73;;
8791;SDS011;4432;50.890;4.744;2023-02-28T16:10:05;7.27;;;2.00;;
8791;SDS011;4432;50.890;4.744;2023-02-28T16:12:33;1.83;;;1.73;;
8791;SDS011;4432;50.890;4.744;2023-02-28T16:15:02;2.40;;;1.70;;
8791;SDS011;4432;50.890;4.744;2023-02-28T16:17:33;6.20;;;3.37;;
8791;SDS011;4432;50.890;4.744;2023-02-28T16:20:05;1.50;;;1.40;;
8791;SDS011;4432;50.890;4.744;2023-02-28T16:22:38;1.97;;;1.60;;
8791;SDS011;4432;50.890;4.744;2023-02-28T16:25:04;9.47;;;1.50;;
8791;SDS011;4432;50.890;4.744;2023-02-28T16:27:34;1.63;;;1.40;;
8791;SDS011;4432;50.890;4.744;2023-02-28T16:30:03;2.10;;;1.70;;
8791;SDS011;4432;50.890;4.744;2023-02-28T16:32:30;1.50;;;1.40;;
8791;SDS011;4432;50.890;4.744;2023-02-28T16:34:59;4.93;;;1.80;;
8791;SDS011;4432;50.890;4.744;2023-02-28T16:37:26;1.70;;;1.53;;
8791;SDS011;4432;50.890;4.744;2023-02-28T16:39:53;1.73;;;1.50;;
8791;SDS011;4432;50.890;4.744;2023-02-28T16:42:23;2.83;;;1.80;;
8791;SDS011;4432;50.890;4.744;2023-02-28T16:44:52;6.27;;;3.67;;
8791;SDS011;4432;50.890;4.744;2023-02-28T16:47:19;4.90;;;1.83;;
8791;SDS011;4432;50.890;4.744;2023-02-28T16:49:45;1.67;;;1.53;;
8791;SDS011;4432;50.890;4.744;2023-02-28T16:52:12;1.57;;;1.47;;
8791;SDS011;4432;50.890;4.744;2023-02-28T16:54:38;2.93;;;2.20;;
8791;SDS011;4432;50.890;4.744;2023-02-28T16:57:05;2.10;;;1.60;;
8791;SDS011;4432;50.890;4.744;2023-02-28T16:59:36;2.50;;;1.60;;
8791;SDS011;4432;50.890;4.744;2023-02-28T17:02:07;4.33;;;2.33;;
8791;SDS011;4432;50.890;4.744;2023-02-28T17:04:37;1.53;;;1.40;;
8791;SDS011;4432;50.890;4.744;2023-02-28T17:07:03;2.07;;;1.87;;
8791;SDS011;4432;50.890;4.744;2023-02-28T17:09:29;2.53;;;1.70;;
8791;SDS011;4432;50.890;4.744;2023-02-28T17:11:54;1.53;;;1.43;;
8791;SDS011;4432;50.890;4.744;2023-02-28T17:14:21;2.00;;;1.80;;
8791;SDS011;4432;50.890;4.744;2023-02-28T17:16:48;3.40;;;1.80;;
8791;SDS011;4432;50.890;4.744;2023-02-28T17:19:14;2.33;;;2.13;;
8791;SDS011;4432;50.890;4.744;2023-02-28T17:21:42;4.03;;;1.50;;
8791;SDS011;4432;50.890;4.744;2023-02-28T17:24:09;3.00;;;2.37;;
8791;SDS011;4432;50.890;4.744;2023-02-28T17:26:37;2.37;;;1.90;;
8791;SDS011;4432;50.890;4.744;2023-02-28T17:29:05;4.07;;;2.10;;
8791;SDS011;4432;50.890;4.744;2023-02-28T17:31:37;2.00;;;1.70;;
8791;SDS011;4432;50.890;4.744;2023-02-28T17:34:04;2.40;;;1.97;;
8791;SDS011;4432;50.890;4.744;2023-02-28T17:36:30;3.10;;;2.03;;
8791;SDS011;4432;50.890;4.744;2023-02-28T17:38:56;2.97;;;2.10;;
8791;SDS011;4432;50.890;4.744;2023-02-28T17:41:23;2.30;;;2.10;;
8791;SDS011;4432;50.890;4.744;2023-02-28T17:43:51;1.67;;;1.57;;
8791;SDS011;4432;50.890;4.744;2023-02-28T17:46:18;2.97;;;2.10;;
8791;SDS011;4432;50.890;4.744;2023-02-28T17:48:52;2.20;;;2.00;;
8791;SDS011;4432;50.890;4.744;2023-02-28T17:51:19;3.27;;;2.33;;
8791;SDS011;4432;50.890;4.744;2023-02-28T17:53:46;1.97;;;1.83;;
8791;SDS011;4432;50.890;4.744;2023-02-28T17:56:13;2.20;;;2.00;;
8791;SDS011;4432;50.890;4.744;2023-02-28T17:58:43;2.03;;;1.90;;
8791;SDS011;4432;50.890;4.744;2023-02-28T18:01:09;2.70;;;2.50;;
8791;SDS011;4432;50.890;4.744;2023-02-28T18:03:36;2.23;;;2.10;;
8791;SDS011;4432;50.890;4.744;2023-02-28T18:06:03;3.47;;;1.97;;